Time;durP1;ratioP1;P1;durP2;ratioP2;P2;SDS_P1;SDS_P2;PMS_P1;PMS_P2;Temp;Humidity;BMP_temperature;BMP_pressure;BME280_temperature;BME280_humidity;BME280_pressure;Samples;Min_cycle;Max_cycle;Signal;HPM_P1;HPM_P2
2021/12/31 00:01:05;;;;;;;9.10;6.03;;;;;;;;;;5055681;28;20486;-64
2021/12/31 00:03:31;;;;;;;10.40;6.88;;;;;;;;;;5057889;28;20487;-64
2021/12/31 00:05:59;;;;;;;9.07;6.13;;;;;;;;;;5055765;28;20025;-64
2021/12/31 00:08:25;;;;;;;6.47;5.88;;;;;;;;;;5055710;28;20028;-64
2021/12/31 00:10:55;;;;;;;7.82;5.47;;;;;;;;;;5055990;28;20028;-64
2021/12/31 00:13:20;;;;;;;6.90;5.43;;;;;;;;;;5055863;28;20505;-63
2021/12/31 00:15:46;;;;;;;6.68;4.32;;;;;;;;;;5054512;28;20012;-62
2021/12/31 00:18:12;;;;;;;5.60;4.40;;;;;;;;;;5055541;28;20483;-62
2021/12/31 00:20:39;;;;;;;7.30;4.85;;;;;;;;;;5055327;28;20020;-63
2021/12/31 00:23:11;;;;;;;7.20;5.75;;;;;;;;;;5055416;28;20029;-62
2021/12/31 00:25:39;;;;;;;6.15;5.18;;;;;;;;;;5055308;28;20021;-62
2021/12/31 00:28:05;;;;;;;8.93;5.47;;;;;;;;;;5055485;28;20025;-62
2021/12/31 00:30:32;;;;;;;5.80;5.22;;;;;;;;;;5055267;28;20033;-62
2021/12/31 00:32:57;;;;;;;6.43;5.57;;;;;;;;;;5055147;28;20024;-63
2021/12/31 00:35:23;;;;;;;7.60;5.70;;;;;;;;;;5055334;28;20040;-62
2021/12/31 00:37:49;;;;;;;7.82;5.65;;;;;;;;;;5055103;28;20021;-62
2021/12/31 00:40:15;;;;;;;7.40;6.13;;;;;;;;;;5054948;28;20052;-63
2021/12/31 00:42:41;;;;;;;7.68;5.43;;;;;;;;;;5054539;28;20021;-63
2021/12/31 00:45:08;;;;;;;6.63;5.00;;;;;;;;;;5054956;28;20479;-63
2021/12/31 00:47:33;;;;;;;8.65;5.53;;;;;;;;;;5055080;28;20056;-63
2021/12/31 00:49:59;;;;;;;6.00;5.43;;;;;;;;;;5054945;28;20495;-63
2021/12/31 00:52:25;;;;;;;8.48;5.25;;;;;;;;;;5054748;28;20062;-63
2021/12/31 00:54:50;;;;;;;6.28;4.70;;;;;;;;;;5055002;28;20162;-62
2021/12/31 00:57:16;;;;;;;5.93;5.32;;;;;;;;;;5054852;28;20017;-62
2021/12/31 00:59:41;;;;;;;6.97;5.40;;;;;;;;;;5054566;28;20029;-63
2021/12/31 01:02:07;;;;;;;6.75;4.72;;;;;;;;;;5054622;28;20126;-63
2021/12/31 01:04:33;;;;;;;6.57;4.72;;;;;;;;;;5054122;28;20368;-62
2021/12/31 01:06:59;;;;;;;5.53;4.75;;;;;;;;;;5053282;28;20136;-70
2021/12/31 01:09:25;;;;;;;9.93;5.43;;;;;;;;;;5054666;28;20029;-70
2021/12/31 01:11:51;;;;;;;8.60;4.97;;;;;;;;;;5054653;28;20040;-71
2021/12/31 01:14:28;;;;;;;5.57;4.80;;;;;;;;;;5054434;28;20120;-71
2021/12/31 01:16:59;;;;;;;6.03;3.72;;;;;;;;;;5054402;28;20037;-71
2021/12/31 01:21:51;;;;;;;5.45;3.97;;;;;;;;;;5054319;28;20099;-71
2021/12/31 01:24:18;;;;;;;5.18;3.50;;;;;;;;;;5054079;28;20446;-71
2021/12/31 01:26:44;;;;;;;4.53;3.92;;;;;;;;;;5054122;28;20368;-71
2021/12/31 01:29:10;;;;;;;4.55;4.00;;;;;;;;;;5053759;28;20108;-71
2021/12/31 01:31:35;;;;;;;5.63;4.20;;;;;;;;;;5054263;28;20060;-71
2021/12/31 01:34:01;;;;;;;7.07;3.90;;;;;;;;;;5053941;28;20518;-71
2021/12/31 01:36:27;;;;;;;7.30;4.47;;;;;;;;;;5054086;28;20490;-71
2021/12/31 01:38:52;;;;;;;4.93;4.20;;;;;;;;;;5054043;28;20036;-71
2021/12/31 01:41:19;;;;;;;5.70;4.32;;;;;;;;;;5053741;28;20076;-71
2021/12/31 01:43:45;;;;;;;5.63;4.35;;;;;;;;;;5053804;28;20029;-72
2021/12/31 01:46:12;;;;;;;6.82;4.47;;;;;;;;;;5053915;28;20040;-71
2021/12/31 01:48:59;;;;;;;5.47;4.03;;;;;;;;;;5054055;28;20036;-72
2021/12/31 01:51:24;;;;;;;4.68;4.13;;;;;;;;;;5053862;28;20035;-72
2021/12/31 01:53:51;;;;;;;4.72;4.05;;;;;;;;;;5052856;28;20070;-71
2021/12/31 01:56:18;;;;;;;4.35;3.95;;;;;;;;;;5053494;28;20044;-72
2021/12/31 01:58:44;;;;;;;5.18;3.83;;;;;;;;;;5053662;28;20110;-71
2021/12/31 02:01:10;;;;;;;4.20;3.78;;;;;;;;;;5053474;28;20047;-71
2021/12/31 02:03:37;;;;;;;5.32;4.03;;;;;;;;;;5051757;28;20023;-71
2021/12/31 02:06:03;;;;;;;5.63;3.75;;;;;;;;;;5053809;28;20037;-71
2021/12/31 02:08:29;;;;;;;4.28;3.83;;;;;;;;;;5053418;28;20025;-71
2021/12/31 02:10:55;;;;;;;6.43;3.78;;;;;;;;;;5053535;28;20083;-71
2021/12/31 02:13:21;;;;;;;4.20;3.17;;;;;;;;;;5053581;28;20021;-71
2021/12/31 02:15:46;;;;;;;5.78;3.58;;;;;;;;;;5052284;28;20438;-71
2021/12/31 02:18:12;;;;;;;4.35;3.95;;;;;;;;;;5053340;28;20021;-71
2021/12/31 02:20:44;;;;;;;4.38;3.92;;;;;;;;;;5053210;28;20025;-72
2021/12/31 02:23:23;;;;;;;4.07;3.67;;;;;;;;;;5051965;28;20120;-64
2021/12/31 02:25:49;;;;;;;4.05;3.72;;;;;;;;;;5053280;28;20548;-62
2021/12/31 02:28:15;;;;;;;5.07;3.85;;;;;;;;;;5053381;28;20037;-62
2021/12/31 02:30:41;;;;;;;3.90;3.60;;;;;;;;;;5053286;28;20056;-63
2021/12/31 02:33:06;;;;;;;4.82;4.18;;;;;;;;;;5053319;28;20063;-62
2021/12/31 02:35:32;;;;;;;3.55;3.20;;;;;;;;;;5053044;28;20037;-63
2021/12/31 02:37:58;;;;;;;4.57;3.30;;;;;;;;;;5053128;28;20025;-63
2021/12/31 02:40:24;;;;;;;3.30;2.95;;;;;;;;;;5053049;28;20032;-63
2021/12/31 02:42:50;;;;;;;3.72;3.33;;;;;;;;;;5053307;28;20109;-63
2021/12/31 02:45:16;;;;;;;3.65;3.33;;;;;;;;;;5053283;28;20119;-63
2021/12/31 02:47:45;;;;;;;3.28;2.97;;;;;;;;;;5053279;28;20020;-62
2021/12/31 02:50:16;;;;;;;5.43;3.28;;;;;;;;;;5053096;28;20065;-62
2021/12/31 02:52:42;;;;;;;4.28;3.20;;;;;;;;;;5053161;28;20025;-62
2021/12/31 02:55:09;;;;;;;3.58;3.28;;;;;;;;;;5052862;28;20037;-63
2021/12/31 02:57:35;;;;;;;4.65;3.72;;;;;;;;;;5053030;28;20028;-63
2021/12/31 03:00:00;;;;;;;4.30;3.88;;;;;;;;;;5052912;28;20025;-63
2021/12/31 03:02:26;;;;;;;5.03;3.35;;;;;;;;;;5052970;28;20027;-63
2021/12/31 03:04:52;;;;;;;4.22;3.72;;;;;;;;;;5056592;28;20087;-63
2021/12/31 03:07:18;;;;;;;4.25;3.58;;;;;;;;;;5056762;28;20026;-63
2021/12/31 03:09:46;;;;;;;4.32;3.63;;;;;;;;;;5057021;28;20024;-63
2021/12/31 03:12:13;;;;;;;3.97;3.65;;;;;;;;;;5056660;28;20082;-62
2021/12/31 03:14:42;;;;;;;4.00;3.55;;;;;;;;;;5055676;28;20024;-63
2021/12/31 03:17:08;;;;;;;4.32;3.92;;;;;;;;;;5056737;28;20372;-62
2021/12/31 03:19:34;;;;;;;4.15;3.70;;;;;;;;;;5056383;28;20082;-63
2021/12/31 03:21:59;;;;;;;4.03;3.58;;;;;;;;;;5056474;28;20025;-62
2021/12/31 03:24:25;;;;;;;4.10;3.70;;;;;;;;;;5056455;28;20076;-62
2021/12/31 03:26:50;;;;;;;5.00;4.50;;;;;;;;;;5056731;28;20041;-62
2021/12/31 03:29:16;;;;;;;4.45;4.13;;;;;;;;;;5056416;28;20033;-62
2021/12/31 03:31:41;;;;;;;4.47;4.05;;;;;;;;;;5056404;28;20433;-62
2021/12/31 03:34:07;;;;;;;4.53;3.55;;;;;;;;;;5056212;28;20078;-62
2021/12/31 03:36:32;;;;;;;4.13;3.78;;;;;;;;;;5056133;28;20021;-62
2021/12/31 03:38:58;;;;;;;4.07;3.63;;;;;;;;;;5056235;28;20025;-62
2021/12/31 03:41:23;;;;;;;4.15;3.80;;;;;;;;;;5056067;28;20017;-63
2021/12/31 03:43:49;;;;;;;4.75;4.35;;;;;;;;;;5056126;28;20028;-64
2021/12/31 03:46:14;;;;;;;4.78;3.60;;;;;;;;;;5055974;28;20104;-64
2021/12/31 03:48:42;;;;;;;4.15;3.78;;;;;;;;;;5056086;28;20475;-64
2021/12/31 03:51:07;;;;;;;3.65;3.35;;;;;;;;;;5056010;28;20025;-64
2021/12/31 03:53:33;;;;;;;3.97;3.22;;;;;;;;;;5055915;28;20127;-63
2021/12/31 03:55:58;;;;;;;4.00;3.60;;;;;;;;;;5056047;28;20028;-63
2021/12/31 03:58:24;;;;;;;3.90;3.00;;;;;;;;;;5056046;28;20115;-63
2021/12/31 04:00:49;;;;;;;4.15;3.75;;;;;;;;;;5055615;28;20013;-63
2021/12/31 04:03:16;;;;;;;4.10;3.72;;;;;;;;;;5055980;28;20025;-63
2021/12/31 04:05:42;;;;;;;6.20;4.68;;;;;;;;;;5055406;28;20048;-63
2021/12/31 04:08:08;;;;;;;6.10;4.82;;;;;;;;;;5055515;28;20107;-63
2021/12/31 04:10:34;;;;;;;5.75;5.25;;;;;;;;;;5055624;28;20021;-63
2021/12/31 04:12:59;;;;;;;6.57;4.68;;;;;;;;;;5055670;28;20358;-63
2021/12/31 04:15:25;;;;;;;5.03;4.18;;;;;;;;;;5055903;28;20072;-62
2021/12/31 04:17:51;;;;;;;5.70;4.80;;;;;;;;;;5054647;28;20044;-62
2021/12/31 04:20:24;;;;;;;4.82;4.40;;;;;;;;;;5055673;28;20028;-72
2021/12/31 04:22:54;;;;;;;6.80;5.03;;;;;;;;;;5055532;28;20032;-71
2021/12/31 04:25:21;;;;;;;6.57;5.30;;;;;;;;;;5055226;28;20093;-71
2021/12/31 04:27:46;;;;;;;6.18;5.03;;;;;;;;;;5055339;28;20107;-70
2021/12/31 04:30:12;;;;;;;6.15;5.60;;;;;;;;;;5055554;28;20526;-70
2021/12/31 04:32:39;;;;;;;6.70;5.53;;;;;;;;;;5055226;28;20017;-70
2021/12/31 04:35:05;;;;;;;7.30;5.60;;;;;;;;;;5055080;28;20013;-70
2021/12/31 04:37:31;;;;;;;7.65;5.60;;;;;;;;;;5055121;28;20032;-70
2021/12/31 04:39:57;;;;;;;7.00;6.10;;;;;;;;;;5055159;28;20028;-71
2021/12/31 04:42:22;;;;;;;8.05;6.78;;;;;;;;;;5054986;28;20028;-71
2021/12/31 04:44:53;;;;;;;7.25;5.60;;;;;;;;;;5055203;28;20520;-73
2021/12/31 04:47:24;;;;;;;5.63;5.07;;;;;;;;;;5053485;28;20028;-74
2021/12/31 04:49:50;;;;;;;5.50;4.85;;;;;;;;;;5054891;28;20028;-72
2021/12/31 04:52:16;;;;;;;4.47;4.07;;;;;;;;;;5054804;28;20036;-72
2021/12/31 04:54:41;;;;;;;4.55;4.15;;;;;;;;;;5054973;28;20025;-72
2021/12/31 04:57:07;;;;;;;4.22;3.90;;;;;;;;;;5054968;28;20033;-71
2021/12/31 04:59:32;;;;;;;3.90;3.60;;;;;;;;;;5053457;28;20052;-71
2021/12/31 05:01:58;;;;;;;4.18;3.58;;;;;;;;;;5054531;28;20475;-71
2021/12/31 05:04:23;;;;;;;3.60;2.97;;;;;;;;;;5054070;28;20086;-72
2021/12/31 05:06:50;;;;;;;2.78;2.53;;;;;;;;;;5054799;28;20032;-72
2021/12/31 05:09:15;;;;;;;2.95;2.75;;;;;;;;;;5054377;28;20029;-72
2021/12/31 05:11:41;;;;;;;2.85;2.65;;;;;;;;;;5054577;28;20483;-73
2021/12/31 05:14:06;;;;;;;3.50;2.92;;;;;;;;;;5054668;28;20031;-73
2021/12/31 05:16:35;;;;;;;2.88;2.63;;;;;;;;;;5054224;28;20088;-72
2021/12/31 05:19:01;;;;;;;2.35;2.25;;;;;;;;;;5052987;28;20045;-73
2021/12/31 05:21:26;;;;;;;3.10;2.42;;;;;;;;;;5054466;28;20091;-72
2021/12/31 05:23:52;;;;;;;2.33;2.05;;;;;;;;;;5054266;28;20124;-72
2021/12/31 05:26:17;;;;;;;3.13;2.25;;;;;;;;;;5053091;28;20112;-72
2021/12/31 05:28:43;;;;;;;3.42;2.67;;;;;;;;;;5054036;28;20044;-72
2021/12/31 05:31:09;;;;;;;2.60;2.20;;;;;;;;;;5054116;28;20037;-72
2021/12/31 05:33:34;;;;;;;2.60;2.40;;;;;;;;;;5054062;28;20028;-62
2021/12/31 05:36:00;;;;;;;2.40;2.20;;;;;;;;;;5054114;28;20074;-62
2021/12/31 05:38:26;;;;;;;2.45;2.25;;;;;;;;;;5053898;28;20476;-62
2021/12/31 05:40:51;;;;;;;2.33;2.15;;;;;;;;;;5053876;28;20082;-62
2021/12/31 05:43:17;;;;;;;4.22;2.42;;;;;;;;;;5053995;28;20021;-62
2021/12/31 05:45:42;;;;;;;2.65;2.45;;;;;;;;;;5053641;28;20475;-70
2021/12/31 05:48:08;;;;;;;2.80;2.60;;;;;;;;;;5053673;28;20025;-70
2021/12/31 05:50:33;;;;;;;3.00;2.80;;;;;;;;;;5053640;28;20036;-70
2021/12/31 05:53:00;;;;;;;2.55;2.38;;;;;;;;;;5053799;28;20107;-71
2021/12/31 05:55:26;;;;;;;3.17;2.80;;;;;;;;;;5054007;28;20029;-70
2021/12/31 05:57:51;;;;;;;2.72;2.53;;;;;;;;;;5053715;28;20507;-71
2021/12/31 06:00:17;;;;;;;3.40;3.15;;;;;;;;;;5052294;28;20060;-70
2021/12/31 06:02:42;;;;;;;3.72;3.20;;;;;;;;;;5052562;28;20021;-70
2021/12/31 06:05:08;;;;;;;3.85;3.10;;;;;;;;;;5053131;28;20049;-70
2021/12/31 06:07:34;;;;;;;3.85;3.25;;;;;;;;;;5053809;28;20033;-70
2021/12/31 06:09:59;;;;;;;3.28;3.03;;;;;;;;;;5053922;28;20029;-71
2021/12/31 06:12:25;;;;;;;3.58;3.28;;;;;;;;;;5035778;28;20033;-71
2021/12/31 06:14:53;;;;;;;4.07;3.42;;;;;;;;;;5052157;28;20020;-71
2021/12/31 06:17:24;;;;;;;3.58;3.28;;;;;;;;;;5053472;28;20020;-72
2021/12/31 06:19:50;;;;;;;3.13;2.83;;;;;;;;;;5053197;28;20399;-72
2021/12/31 06:22:16;;;;;;;3.38;3.10;;;;;;;;;;5053354;28;20466;-71
2021/12/31 06:24:42;;;;;;;3.45;3.10;;;;;;;;;;5052319;28;20075;-70
2021/12/31 06:27:08;;;;;;;4.40;3.65;;;;;;;;;;5053473;28;20078;-71
2021/12/31 06:29:33;;;;;;;3.85;3.53;;;;;;;;;;5053469;28;20021;-71
2021/12/31 06:31:59;;;;;;;3.53;3.22;;;;;;;;;;5053326;28;20028;-71
2021/12/31 06:34:25;;;;;;;3.15;2.80;;;;;;;;;;5053399;28;20025;-71
2021/12/31 06:36:51;;;;;;;3.33;3.03;;;;;;;;;;5053205;28;20517;-71
2021/12/31 06:39:16;;;;;;;3.72;3.17;;;;;;;;;;5053167;28;20029;-71
2021/12/31 06:41:42;;;;;;;3.45;3.15;;;;;;;;;;5056611;28;20052;-70
2021/12/31 06:44:07;;;;;;;5.57;3.40;;;;;;;;;;5057294;28;20593;-71
2021/12/31 06:46:32;;;;;;;3.45;3.15;;;;;;;;;;5057202;28;20017;-70
2021/12/31 06:48:58;;;;;;;3.97;3.13;;;;;;;;;;5057404;28;20020;-73
2021/12/31 06:51:23;;;;;;;4.22;3.45;;;;;;;;;;5057245;28;20468;-72
2021/12/31 06:53:49;;;;;;;6.78;4.90;;;;;;;;;;5057123;28;20399;-71
2021/12/31 06:56:14;;;;;;;5.65;5.13;;;;;;;;;;5057356;28;20409;-70
2021/12/31 06:58:40;;;;;;;7.00;5.85;;;;;;;;;;5056815;28;20056;-70
2021/12/31 07:01:05;;;;;;;7.18;6.45;;;;;;;;;;5057100;28;20082;-70
2021/12/31 07:03:31;;;;;;;6.05;5.18;;;;;;;;;;5056863;28;20074;-71
2021/12/31 07:05:57;;;;;;;8.38;6.07;;;;;;;;;;5056776;28;20098;-70
2021/12/31 07:08:22;;;;;;;5.80;5.15;;;;;;;;;;5056580;28;20029;-72
2021/12/31 07:10:48;;;;;;;5.13;4.70;;;;;;;;;;5056713;28;20028;-70
2021/12/31 07:13:13;;;;;;;4.45;4.05;;;;;;;;;;5056709;28;20029;-72
2021/12/31 07:15:44;;;;;;;4.07;3.72;;;;;;;;;;5056739;28;20116;-70
2021/12/31 07:18:10;;;;;;;;;;;;;;;;;;5057227;28;20025;-71
2021/12/31 07:20:36;;;;;;;3.65;3.33;;;;;;;;;;5056463;28;20263;-70
2021/12/31 07:23:09;;;;;;;4.13;3.83;;;;;;;;;;5056721;28;20123;-70
2021/12/31 07:25:35;;;;;;;3.97;3.58;;;;;;;;;;5056606;28;20025;-71
2021/12/31 07:28:01;;;;;;;4.95;4.03;;;;;;;;;;5056257;28;20391;-70
2021/12/31 07:30:28;;;;;;;5.53;3.75;;;;;;;;;;5056505;28;20105;-70
2021/12/31 07:32:53;;;;;;;5.75;4.53;;;;;;;;;;5056249;28;20032;-70
2021/12/31 07:35:19;;;;;;;5.07;4.13;;;;;;;;;;5055187;28;20028;-71
2021/12/31 07:37:44;;;;;;;6.00;4.63;;;;;;;;;;5056123;28;20032;-71
2021/12/31 07:40:12;;;;;;;5.00;4.50;;;;;;;;;;5056157;28;20022;-71
2021/12/31 07:42:37;;;;;;;5.07;4.55;;;;;;;;;;5056172;28;20013;-71
2021/12/31 07:45:03;;;;;;;4.75;4.22;;;;;;;;;;5056049;28;20029;-71
2021/12/31 07:47:29;;;;;;;5.35;4.85;;;;;;;;;;5056101;28;20104;-71
2021/12/31 07:49:54;;;;;;;6.22;5.60;;;;;;;;;;5056018;28;20183;-70
2021/12/31 07:52:20;;;;;;;5.78;5.28;;;;;;;;;;5056033;28;20454;-71
2021/12/31 07:54:46;;;;;;;6.03;5.25;;;;;;;;;;5056029;28;20037;-70
2021/12/31 07:57:11;;;;;;;6.78;5.70;;;;;;;;;;5056046;28;20025;-71
2021/12/31 07:59:37;;;;;;;6.45;5.38;;;;;;;;;;5047048;28;20029;-71
2021/12/31 08:02:02;;;;;;;6.13;5.50;;;;;;;;;;5041935;28;20026;-71
2021/12/31 08:04:28;;;;;;;5.80;4.78;;;;;;;;;;5034742;28;20037;-70
2021/12/31 08:06:53;;;;;;;5.53;4.47;;;;;;;;;;5036545;28;20472;-71
2021/12/31 08:09:19;;;;;;;5.20;3.70;;;;;;;;;;5035902;28;20029;-71
2021/12/31 08:11:44;;;;;;;7.10;3.92;;;;;;;;;;5046986;28;20072;-71
2021/12/31 08:14:10;;;;;;;4.53;4.10;;;;;;;;;;5054308;28;20045;-70
2021/12/31 08:16:36;;;;;;;4.65;4.20;;;;;;;;;;5055947;28;20380;-70
2021/12/31 08:19:02;;;;;;;5.68;4.75;;;;;;;;;;5055705;28;20460;-71
2021/12/31 08:21:27;;;;;;;5.20;4.40;;;;;;;;;;5055549;28;20112;-72
2021/12/31 08:23:53;;;;;;;4.25;3.58;;;;;;;;;;5055512;28;20387;-71
2021/12/31 08:26:18;;;;;;;3.92;3.15;;;;;;;;;;5055324;28;20070;-71
2021/12/31 08:28:44;;;;;;;4.88;3.20;;;;;;;;;;5048212;28;20487;-72
2021/12/31 08:31:09;;;;;;;5.32;3.38;;;;;;;;;;5051815;28;20025;-72
2021/12/31 08:33:34;;;;;;;4.70;3.17;;;;;;;;;;5052060;28;20544;-72
2021/12/31 08:36:00;;;;;;;4.63;3.50;;;;;;;;;;5051823;28;20052;-72
2021/12/31 08:38:25;;;;;;;4.43;3.75;;;;;;;;;;5050325;28;20029;-72
2021/12/31 08:40:51;;;;;;;5.88;4.47;;;;;;;;;;5051998;28;20541;-72
2021/12/31 08:43:17;;;;;;;5.65;4.38;;;;;;;;;;5051368;28;20078;-72
2021/12/31 08:45:42;;;;;;;6.35;4.03;;;;;;;;;;5051915;28;20489;-72
2021/12/31 08:48:08;;;;;;;5.88;4.32;;;;;;;;;;5050402;28;20025;-73
2021/12/31 08:50:33;;;;;;;6.38;4.43;;;;;;;;;;5031256;28;20056;-73
2021/12/31 08:52:59;;;;;;;4.93;3.90;;;;;;;;;;5032492;28;20361;-72
2021/12/31 08:55:24;;;;;;;4.20;3.78;;;;;;;;;;5050821;28;20033;-72
2021/12/31 08:57:50;;;;;;;5.40;4.32;;;;;;;;;;5051284;28;20033;-72
2021/12/31 09:00:16;;;;;;;5.78;4.47;;;;;;;;;;5051399;28;20059;-72
2021/12/31 09:02:42;;;;;;;4.63;3.50;;;;;;;;;;5050854;28;20094;-72
2021/12/31 09:05:08;;;;;;;4.45;3.67;;;;;;;;;;5051059;28;20060;-72
2021/12/31 09:07:34;;;;;;;3.92;3.53;;;;;;;;;;5051034;28;20044;-72
2021/12/31 09:10:00;;;;;;;4.43;4.03;;;;;;;;;;5051370;28;20025;-72
2021/12/31 09:12:25;;;;;;;3.95;3.55;;;;;;;;;;5051375;28;20167;-72
2021/12/31 09:14:51;;;;;;;4.28;3.88;;;;;;;;;;5051849;28;20131;-72
2021/12/31 09:17:16;;;;;;;3.83;3.47;;;;;;;;;;5051025;28;20384;-73
2021/12/31 09:19:41;;;;;;;5.38;4.88;;;;;;;;;;5051227;28;20037;-72
2021/12/31 09:22:07;;;;;;;3.05;2.70;;;;;;;;;;5051584;28;20123;-72
2021/12/31 09:24:32;;;;;;;6.35;4.47;;;;;;;;;;5051316;28;20025;-72
2021/12/31 09:26:58;;;;;;;4.00;3.65;;;;;;;;;;5051179;28;20044;-72
2021/12/31 09:29:23;;;;;;;6.22;5.53;;;;;;;;;;5051037;28;20768;-72
2021/12/31 09:31:52;;;;;;;5.35;4.85;;;;;;;;;;5038510;28;20106;-73
2021/12/31 09:34:18;;;;;;;5.65;5.07;;;;;;;;;;5031097;28;20032;-72
2021/12/31 09:36:43;;;;;;;7.55;6.47;;;;;;;;;;5030939;28;20041;-73
2021/12/31 09:39:09;;;;;;;9.07;6.70;;;;;;;;;;5030965;28;20095;-71
2021/12/31 09:41:35;;;;;;;7.22;5.32;;;;;;;;;;5031319;28;20112;-72
2021/12/31 09:44:01;;;;;;;11.68;7.43;;;;;;;;;;5031153;28;20025;-73
2021/12/31 09:46:26;;;;;;;11.02;7.85;;;;;;;;;;5030802;28;20044;-72
2021/12/31 09:48:53;;;;;;;9.77;5.78;;;;;;;;;;5030769;28;20025;-72
2021/12/31 09:51:19;;;;;;;11.27;8.15;;;;;;;;;;5030778;28;20025;-71
2021/12/31 09:53:45;;;;;;;13.00;7.45;;;;;;;;;;5030587;28;20033;-71
2021/12/31 09:56:10;;;;;;;12.30;9.55;;;;;;;;;;5030814;28;20025;-71
2021/12/31 09:58:36;;;;;;;14.27;10.75;;;;;;;;;;5030542;28;20022;-72
2021/12/31 10:01:03;;;;;;;8.30;6.20;;;;;;;;;;5030750;28;20095;-71
2021/12/31 10:03:30;;;;;;;9.80;6.88;;;;;;;;;;5030431;28;20116;-71
2021/12/31 10:05:57;;;;;;;11.60;7.60;;;;;;;;;;5030102;28;20041;-71
2021/12/31 10:08:24;;;;;;;9.07;6.43;;;;;;;;;;5030208;28;20037;-71
2021/12/31 10:11:03;;;;;;;11.93;8.15;;;;;;;;;;5030786;28;20672;-71
2021/12/31 10:13:29;;;;;;;7.63;5.72;;;;;;;;;;5030497;28;20045;-71
2021/12/31 10:15:55;;;;;;;1.95;1.75;;;;;;;;;;5029589;28;20083;-71
2021/12/31 10:18:27;;;;;;;10.75;7.07;;;;;;;;;;5030425;28;20045;-71
2021/12/31 10:20:53;;;;;;;12.57;8.63;;;;;;;;;;5030375;28;20041;-62
2021/12/31 10:23:20;;;;;;;8.73;5.93;;;;;;;;;;5030544;28;20071;-62
2021/12/31 10:25:48;;;;;;;13.07;8.60;;;;;;;;;;5030320;28;20021;-62
2021/12/31 10:28:15;;;;;;;14.20;9.35;;;;;;;;;;5030262;28;20071;-62
2021/12/31 10:30:41;;;;;;;9.57;7.22;;;;;;;;;;5030387;28;20144;-62
2021/12/31 10:33:09;;;;;;;10.95;7.60;;;;;;;;;;5029792;28;20538;-62
2021/12/31 10:35:38;;;;;;;14.07;8.68;;;;;;;;;;5030444;28;20073;-62
2021/12/31 10:38:06;;;;;;;8.48;5.93;;;;;;;;;;5029971;28;20025;-62
2021/12/31 10:40:31;;;;;;;14.23;9.45;;;;;;;;;;5030278;28;20087;-62
2021/12/31 10:43:07;;;;;;;11.13;7.80;;;;;;;;;;5028664;28;20022;-62
2021/12/31 10:45:34;;;;;;;13.27;9.48;;;;;;;;;;5030205;28;20033;-62
2021/12/31 10:48:06;;;;;;;14.38;9.02;;;;;;;;;;5029803;28;20120;-62
2021/12/31 10:50:32;;;;;;;14.63;9.48;;;;;;;;;;5028678;28;20030;-63
2021/12/31 10:53:16;;;;;;;11.45;8.48;;;;;;;;;;5029993;28;20502;-63
2021/12/31 10:55:44;;;;;;;13.73;9.80;;;;;;;;;;5030136;28;20103;-63
2021/12/31 10:58:14;;;;;;;14.80;9.10;;;;;;;;;;5029552;28;20025;-62
2021/12/31 11:00:41;;;;;;;12.48;9.02;;;;;;;;;;5029541;28;20033;-63
2021/12/31 11:03:06;;;;;;;12.85;10.15;;;;;;;;;;5029865;28;20453;-63
2021/12/31 11:05:32;;;;;;;14.27;9.38;;;;;;;;;;5029913;28;20053;-62
2021/12/31 11:07:59;;;;;;;16.33;10.07;;;;;;;;;;5029500;28;20384;-62
2021/12/31 11:10:25;;;;;;;14.20;9.30;;;;;;;;;;5029951;28;20028;-62
2021/12/31 11:12:51;;;;;;;12.77;9.05;;;;;;;;;;5029992;28;20068;-62
2021/12/31 11:15:17;;;;;;;14.15;9.98;;;;;;;;;;5029962;28;20419;-62
2021/12/31 11:17:42;;;;;;;15.32;9.45;;;;;;;;;;5029603;28;20037;-62
2021/12/31 11:20:08;;;;;;;14.30;9.18;;;;;;;;;;5029470;28;20029;-62
2021/12/31 11:22:34;;;;;;;13.95;8.68;;;;;;;;;;5030433;28;20033;-62
2021/12/31 11:25:17;;;;;;;14.50;9.75;;;;;;;;;;5030158;28;20025;-62
2021/12/31 11:27:45;;;;;;;15.75;9.57;;;;;;;;;;5037343;28;20021;-62
2021/12/31 11:30:30;;;;;;;13.77;8.93;;;;;;;;;;5053705;28;20531;-62
2021/12/31 11:32:56;;;;;;;13.00;9.30;;;;;;;;;;5053212;28;20395;-72
2021/12/31 11:35:27;;;;;;;14.63;8.90;;;;;;;;;;5053299;28;20024;-71
2021/12/31 11:37:53;;;;;;;9.85;6.35;;;;;;;;;;5052760;28;20025;-72
2021/12/31 11:40:25;;;;;;;13.38;7.72;;;;;;;;;;5053040;28;20411;-72
2021/12/31 11:43:13;;;;;;;17.55;9.80;;;;;;;;;;5053125;28;20033;-71
2021/12/31 11:45:39;;;;;;;14.20;9.38;;;;;;;;;;5045915;28;20041;-71
2021/12/31 11:48:23;;;;;;;14.30;8.43;;;;;;;;;;5052641;28;20097;-69
2021/12/31 11:51:05;;;;;;;18.15;9.73;;;;;;;;;;5052903;28;20040;-71
2021/12/31 11:53:31;;;;;;;19.13;10.02;;;;;;;;;;5052869;28;20035;-72
2021/12/31 11:55:56;;;;;;;18.42;11.10;;;;;;;;;;5052775;28;20425;-71
2021/12/31 11:58:39;;;;;;;15.63;10.45;;;;;;;;;;5052691;28;20037;-72
2021/12/31 12:01:37;;;;;;;16.30;10.15;;;;;;;;;;5052945;28;20033;-71
2021/12/31 12:04:21;;;;;;;17.52;9.73;;;;;;;;;;5040243;28;20139;-71
2021/12/31 12:06:57;;;;;;;14.88;9.65;;;;;;;;;;5050930;28;20045;-71
2021/12/31 12:09:23;;;;;;;11.43;7.18;;;;;;;;;;5052527;28;20067;-71
2021/12/31 12:12:00;;;;;;;13.27;8.90;;;;;;;;;;5051400;28;20029;-71
2021/12/31 12:14:46;;;;;;;13.63;7.85;;;;;;;;;;5051012;28;20041;-71
2021/12/31 12:17:13;;;;;;;12.25;7.60;;;;;;;;;;5052406;28;20473;-71
2021/12/31 12:19:50;;;;;;;11.70;7.20;;;;;;;;;;5052409;28;20106;-71
2021/12/31 12:22:28;;;;;;;9.48;6.85;;;;;;;;;;5052389;28;20049;-71
2021/12/31 12:24:58;;;;;;;9.73;5.72;;;;;;;;;;5050383;28;20044;-71
2021/12/31 12:27:25;;;;;;;13.38;6.65;;;;;;;;;;5052094;28;20045;-63
2021/12/31 12:29:51;;;;;;;10.05;6.68;;;;;;;;;;5051960;28;20116;-62
2021/12/31 12:32:28;;;;;;;15.10;7.68;;;;;;;;;;5052000;28;20055;-62
2021/12/31 12:34:54;;;;;;;11.80;8.40;;;;;;;;;;5052052;28;20037;-62
2021/12/31 12:37:30;;;;;;;10.48;7.22;;;;;;;;;;5051369;28;20041;-62
2021/12/31 12:39:59;;;;;;;13.55;7.95;;;;;;;;;;5050378;28;20482;-63
2021/12/31 12:42:25;;;;;;;14.85;7.80;;;;;;;;;;5051929;28;20361;-62
2021/12/31 12:45:20;;;;;;;14.75;8.25;;;;;;;;;;5052052;28;20025;-61
2021/12/31 12:47:50;;;;;;;12.23;7.32;;;;;;;;;;5047056;28;20045;-64
2021/12/31 12:50:16;;;;;;;;;;;;;;;;;;5052137;28;20033;-62
2021/12/31 12:52:51;;;;;;;13.50;8.38;;;;;;;;;;5051787;28;19923;-62
2021/12/31 12:55:17;;;;;;;10.05;6.50;;;;;;;;;;5051862;28;20043;-64
2021/12/31 12:57:50;;;;;;;9.82;7.32;;;;;;;;;;5051320;28;20044;-64
2021/12/31 13:00:15;;;;;;;10.68;6.72;;;;;;;;;;5051807;28;20032;-64
2021/12/31 13:02:42;;;;;;;12.18;8.00;;;;;;;;;;5051686;28;20425;-63
2021/12/31 13:05:08;;;;;;;10.05;7.07;;;;;;;;;;5051096;28;20079;-64
2021/12/31 13:07:35;;;;;;;12.88;8.57;;;;;;;;;;5051284;28;20060;-61
2021/12/31 13:10:07;;;;;;;14.02;8.70;;;;;;;;;;5051408;28;20064;-61
2021/12/31 13:12:33;;;;;;;15.00;9.38;;;;;;;;;;5051469;28;20086;-61
2021/12/31 13:15:01;;;;;;;14.02;9.57;;;;;;;;;;5051644;28;20127;-61
2021/12/31 13:17:27;;;;;;;17.27;10.45;;;;;;;;;;5051207;28;20048;-61
2021/12/31 13:20:03;;;;;;;14.20;9.55;;;;;;;;;;5051362;28;20024;-61
2021/12/31 13:22:35;;;;;;;15.70;9.27;;;;;;;;;;5051631;28;20052;-61
2021/12/31 13:25:01;;;;;;;15.60;9.63;;;;;;;;;;5051036;28;20032;-64
2021/12/31 13:27:31;;;;;;;16.25;10.15;;;;;;;;;;5050860;28;20070;-64
2021/12/31 13:30:12;;;;;;;16.38;8.95;;;;;;;;;;5050859;28;20033;-61
2021/12/31 13:32:39;;;;;;;14.30;9.27;;;;;;;;;;5050952;28;20029;-61
2021/12/31 13:35:08;;;;;;;15.00;9.00;;;;;;;;;;5050975;28;20467;-61
2021/12/31 13:37:35;;;;;;;14.77;8.70;;;;;;;;;;5050887;28;20044;-61
2021/12/31 13:40:14;;;;;;;13.70;9.18;;;;;;;;;;5050738;28;20040;-61
2021/12/31 13:42:44;;;;;;;14.57;8.45;;;;;;;;;;5050620;28;20064;-61
2021/12/31 13:45:19;;;;;;;13.77;9.07;;;;;;;;;;5050775;28;20039;-61
2021/12/31 13:47:45;;;;;;;16.17;8.80;;;;;;;;;;5049243;28;20444;-69
2021/12/31 13:50:10;;;;;;;14.65;9.13;;;;;;;;;;5050392;28;20017;-70
2021/12/31 13:52:43;;;;;;;14.10;9.18;;;;;;;;;;5050518;28;20376;-69
2021/12/31 13:55:37;;;;;;;15.57;9.68;;;;;;;;;;5050680;28;20040;-69
2021/12/31 13:58:04;;;;;;;11.38;7.80;;;;;;;;;;5049440;28;20060;-69
2021/12/31 14:00:30;;;;;;;18.45;9.70;;;;;;;;;;5050496;28;20040;-71
2021/12/31 14:02:56;;;;;;;15.65;9.23;;;;;;;;;;5050358;28;20033;-72
2021/12/31 14:05:23;;;;;;;12.40;8.27;;;;;;;;;;5049799;28;20174;-72
2021/12/31 14:10:20;;;;;;;16.15;9.23;;;;;;;;;;5050008;28;20039;-70
2021/12/31 14:12:46;;;;;;;15.85;9.57;;;;;;;;;;5050264;28;20398;-70
2021/12/31 14:15:11;;;;;;;13.45;9.07;;;;;;;;;;5050224;28;20041;-69
2021/12/31 14:17:37;;;;;;;14.43;9.52;;;;;;;;;;5048904;28;20047;-69
2021/12/31 14:20:04;;;;;;;18.77;9.85;;;;;;;;;;5050119;28;20029;-69
2021/12/31 14:22:29;;;;;;;15.07;9.40;;;;;;;;;;5048756;28;20067;-69
2021/12/31 14:24:55;;;;;;;15.35;9.52;;;;;;;;;;5050032;28;20476;-69
2021/12/31 14:27:20;;;;;;;15.98;9.85;;;;;;;;;;5050076;28;20037;-70
2021/12/31 14:29:46;;;;;;;12.70;8.77;;;;;;;;;;5050249;28;20025;-71
2021/12/31 14:32:11;;;;;;;17.33;10.18;;;;;;;;;;5049807;28;20037;-70
2021/12/31 14:34:37;;;;;;;15.18;9.10;;;;;;;;;;5050065;28;20028;-69
2021/12/31 14:37:08;;;;;;;17.65;9.90;;;;;;;;;;5048354;28;20052;-70
2021/12/31 14:39:35;;;;;;;18.73;10.23;;;;;;;;;;5049721;28;20136;-70
2021/12/31 14:42:02;;;;;;;13.90;9.00;;;;;;;;;;5049808;28;20285;-70
2021/12/31 14:44:28;;;;;;;13.98;9.30;;;;;;;;;;5050088;28;20041;-70